Fulmar — WDD3992 — position and weather

sailwx.info

Track history (hours):
 
Tides and Currents Weather Stations Pressure Air Temp Water Temp Dewpoint Dewpoint Depression Visibility Wind Speed Wind Dir Waves Ship Positions

Oceanographic research ship Fulmar (United States)

Owner: NOAA R/V Fulmar, Monterey, CA. More information available from US FCC via Universal Licensing System.

Last reported at 2018-Jun-23 23:41 UTC. Time now 2018-Jun-24 09:18 UTC.
Position N 36°37' W 121°54'.

Length 20 m; draft 2 m.

Type: Ship. MMSI: 367139040.

Date/timePositionNaut miles runAvg speedWind from/ knotsBaromVisibWave heightAir tempDewpointWater temp
2018-Jun-23 23:41N 36°37' W 121°54'0 0.8
2018-Jun-23 23:30N 36°36' W 121°53'814.4
2018-Jun-23 22:59N 36°43' W 121°50'5 8.2
2018-Jun-23 22:20N 36°48' W 121°47'0 0.0
2018-Jun-23 21:56N 36°48' W 121°47'1 2.6
2018-Jun-23 21:30N 36°49' W 121°48'1 0.9
2018-Jun-23 20:54N 36°49' W 121°49'1 1.2
2018-Jun-23 20:18N 36°49' W 121°48'0 0.9
2018-Jun-23 19:53N 36°48' W 121°49'0 0.4
2018-Jun-23 19:19N 36°48' W 121°49'2 4.8
2018-Jun-23 18:52N 36°48' W 121°52'1 1.9
2018-Jun-23 18:23N 36°48' W 121°51'0 0.1
2018-Jun-23 17:55N 36°48' W 121°51'0 0.3
2018-Jun-23 17:21N 36°48' W 121°51'1 3.8
2018-Jun-23 16:59N 36°48' W 121°49'2 3.3
2018-Jun-23 16:26N 36°48' W 121°47'0 0.3
2018-Jun-23 16:00N 36°48' W 121°47'4 7.9
2018-Jun-23 15:28N 36°46' W 121°52'816.4
2018-Jun-23 15:00N 36°39' W 121°52'2 4.6
2018-Jun-23 14:30N 36°37' W 121°54'0 0.0
2018-Jun-23 14:00N 36°37' W 121°54'0 0.0
2018-Jun-21 22:15N 36°37' W 121°54'0 0.0
2018-Jun-21 21:59N 36°37' W 121°54'0 0.0
2018-Jun-21 21:26N 36°37' W 121°54'0 0.0
2018-Jun-21 20:56N 36°37' W 121°54'0 0.0
2018-Jun-21 20:29N 36°37' W 121°54'0 0.0
2018-Jun-21 19:55N 36°37' W 121°54'  
2018-Jun-18 22:33N 36°37' W 121°54'0 0.0
2018-Jun-18 22:30N 36°37' W 121°54'0 0.8
2018-Jun-18 22:00N 36°36' W 121°53'0 0.0
2018-Jun-18 21:30N 36°36' W 121°53'0 0.0
2018-Jun-18 21:00N 36°36' W 121°53'0 0.0
2018-Jun-18 20:30N 36°36' W 121°53'1 1.4
2018-Jun-18 20:00N 36°37' W 121°53'1 1.1
2018-Jun-18 19:30N 36°37' W 121°54'  
2018-Jun-15 20:38N 36°37' W 121°54'0 0.0
2018-Jun-15 20:30N 36°37' W 121°54'0 0.9
2018-Jun-15 20:00N 36°37' W 121°53'1 1.1
2018-Jun-15 19:30N 36°37' W 121°54'0 0.8
2018-Jun-15 19:00N 36°37' W 121°53'0 0.3
2018-Jun-15 18:30N 36°37' W 121°53'2 3.9
2018-Jun-15 18:00N 36°39' W 121°53'1 1.1
2018-Jun-15 17:30N 36°38' W 121°53'1 1.6
2018-Jun-15 17:01N 36°37' W 121°53'1 1.6
2018-Jun-15 16:26N 36°37' W 121°54'  
Track history (hours):
 
Tides and Currents Weather Stations Pressure Air Temp Water Temp Dewpoint Dewpoint Depression Visibility Wind Speed Wind Dir Waves Ship Positions

Oceanographic research ship Fulmar (United States)

Owner: NOAA R/V Fulmar, Monterey, CA. More information available from US FCC via Universal Licensing System.

Last reported at 2018-Jun-23 23:41 UTC. Time now 2018-Jun-24 09:18 UTC.
Position N 36°37' W 121°54'.

Length 20 m; draft 2 m.

Type: Ship. MMSI: 367139040.

Date/timePositionNaut miles runAvg speedWind from/ knotsBaromVisibWave heightAir tempDewpointWater temp
2018-Jun-23 23:41N 36°37' W 121°54'0 0.8
2018-Jun-23 23:30N 36°36' W 121°53'814.4
2018-Jun-23 22:59N 36°43' W 121°50'5 8.2
2018-Jun-23 22:20N 36°48' W 121°47'0 0.0
2018-Jun-23 21:56N 36°48' W 121°47'1 2.6
2018-Jun-23 21:30N 36°49' W 121°48'1 0.9
2018-Jun-23 20:54N 36°49' W 121°49'1 1.2
2018-Jun-23 20:18N 36°49' W 121°48'0 0.9
2018-Jun-23 19:53N 36°48' W 121°49'0 0.4
2018-Jun-23 19:19N 36°48' W 121°49'2 4.8
2018-Jun-23 18:52N 36°48' W 121°52'1 1.9
2018-Jun-23 18:23N 36°48' W 121°51'0 0.1
2018-Jun-23 17:55N 36°48' W 121°51'0 0.3
2018-Jun-23 17:21N 36°48' W 121°51'1 3.8
2018-Jun-23 16:59N 36°48' W 121°49'2 3.3
2018-Jun-23 16:26N 36°48' W 121°47'0 0.3
2018-Jun-23 16:00N 36°48' W 121°47'4 7.9
2018-Jun-23 15:28N 36°46' W 121°52'816.4
2018-Jun-23 15:00N 36°39' W 121°52'2 4.6
2018-Jun-23 14:30N 36°37' W 121°54'0 0.0
2018-Jun-23 14:00N 36°37' W 121°54'0 0.0
2018-Jun-21 22:15N 36°37' W 121°54'0 0.0
2018-Jun-21 21:59N 36°37' W 121°54'0 0.0
2018-Jun-21 21:26N 36°37' W 121°54'0 0.0
2018-Jun-21 20:56N 36°37' W 121°54'0 0.0
2018-Jun-21 20:29N 36°37' W 121°54'0 0.0
2018-Jun-21 19:55N 36°37' W 121°54'  
2018-Jun-18 22:33N 36°37' W 121°54'0 0.0
2018-Jun-18 22:30N 36°37' W 121°54'0 0.8
2018-Jun-18 22:00N 36°36' W 121°53'0 0.0
2018-Jun-18 21:30N 36°36' W 121°53'0 0.0
2018-Jun-18 21:00N 36°36' W 121°53'0 0.0
2018-Jun-18 20:30N 36°36' W 121°53'1 1.4
2018-Jun-18 20:00N 36°37' W 121°53'1 1.1
2018-Jun-18 19:30N 36°37' W 121°54'  
2018-Jun-15 20:38N 36°37' W 121°54'0 0.0
2018-Jun-15 20:30N 36°37' W 121°54'0 0.9
2018-Jun-15 20:00N 36°37' W 121°53'1 1.1
2018-Jun-15 19:30N 36°37' W 121°54'0 0.8
2018-Jun-15 19:00N 36°37' W 121°53'0 0.3
2018-Jun-15 18:30N 36°37' W 121°53'2 3.9
2018-Jun-15 18:00N 36°39' W 121°53'1 1.1
2018-Jun-15 17:30N 36°38' W 121°53'1 1.6
2018-Jun-15 17:01N 36°37' W 121°53'1 1.6
2018-Jun-15 16:26N 36°37' W 121°54'  

Dump ship's entire track history